logo
Search for airport 
image banner adimage banner adimage banner ad
image banner ad

ED1774 - Leipzig St.-Elisabeth-Krhs.

Located in Leipzig, Germany

ICAO - , IATA -

Data provided by Airmate  

General information

Coordinates: N51°18'12" E12°22'43"
Elevation is 438 feet MSL.
 
View others Airports in Saxony

Operational data

Special qualification required
Current time UTC:
Current local time:
Weather at : EDDP - Leipzig/Halle ( 17 km )
METAR: EDDP 280120Z AUTO 22006KT CAVOK 15/14 Q1015 NOSIG
TAF: TAF EDDP 272300Z 2800/2824 22005KT 9999 BKN030 TEMPO 2800/2807 4000 RA BKN014 PROB40 TEMPO 2800/2801 TSRA BKN015CB BECMG 2805/2808 27010KT TEMPO 2812/2816 SHRA BKN030CB BECMG 2816/2818 23004KT
View NOTAMs / SUP AIP / TFR affecting this airport [VIEW]
Communications frequencies: [VIEW]

Runways:

Airport contact information

Address: Leipzig Germany

Satellite view of ED1774